Time;durP1;ratioP1;P1;durP2;ratioP2;P2;SDS_P1;SDS_P2;PMS_P1;PMS_P2;Temp;Humidity;BMP_temperature;BMP_pressure;BME280_temperature;BME280_humidity;BME280_pressure;Samples;Min_cycle;Max_cycle;Signal;HPM_P1;HPM_P2
2023/03/19 00:01:23;;;;;;;10.63;2.30;;;;;;;9.42;100.00;100273.09;5097360;27;20036;-79
2023/03/19 00:03:49;;;;;;;8.65;2.00;;;;;;;9.40;100.00;100275.34;5099380;28;20051;-80
2023/03/19 00:06:14;;;;;;;8.27;2.10;;;;;;;9.41;100.00;100288.06;5067880;27;20027;-79
2023/03/19 00:08:40;;;;;;;6.93;2.10;;;;;;;9.38;100.00;100295.00;5085781;27;20034;-79
2023/03/19 00:11:10;;;;;;;7.90;2.15;;;;;;;9.37;100.00;100298.91;5077416;27;20720;-79
2023/03/19 00:13:35;;;;;;;5.40;1.70;;;;;;;9.35;100.00;100294.78;5102289;27;20027;-79
2023/03/19 00:16:01;;;;;;;8.75;1.67;;;;;;;9.34;100.00;100295.91;5119440;27;20027;-80
2023/03/19 00:18:26;;;;;;;5.80;1.92;;;;;;;9.35;100.00;100294.78;5098829;28;20020;-80
2023/03/19 00:20:52;;;;;;;5.55;2.13;;;;;;;9.33;100.00;100302.53;5102074;27;20413;-79
2023/03/19 00:23:17;;;;;;;5.80;1.65;;;;;;;9.31;100.00;100300.06;5085285;27;20031;-79
2023/03/19 00:25:43;;;;;;;8.82;1.95;;;;;;;9.30;100.00;100294.81;5085054;27;20034;-79
2023/03/19 00:28:08;;;;;;;6.80;2.28;;;;;;;9.28;100.00;100297.06;5082141;28;20108;-79
2023/03/19 00:30:34;;;;;;;5.35;1.95;;;;;;;9.24;100.00;100299.56;5065024;28;20067;-79
2023/03/19 00:33:00;;;;;;;6.07;1.65;;;;;;;9.22;100.00;100306.53;5081556;28;20460;-79
2023/03/19 00:35:25;;;;;;;8.15;1.88;;;;;;;9.20;100.00;100309.59;5094292;27;20028;-79
2023/03/19 00:37:51;;;;;;;5.78;1.92;;;;;;;9.16;100.00;100302.97;5081538;28;20118;-79
2023/03/19 00:40:17;;;;;;;6.20;1.90;;;;;;;9.15;100.00;100302.16;5096576;27;20117;-78
2023/03/19 00:42:43;;;;;;;8.95;1.70;;;;;;;9.08;100.00;100301.66;5089152;28;20036;-79
2023/03/19 00:45:10;;;;;;;9.73;2.63;;;;;;;9.07;100.00;100288.91;5083474;27;20035;-79
2023/03/19 00:47:36;;;;;;;5.47;2.08;;;;;;;9.00;100.00;100295.88;5081098;28;20039;-79
2023/03/19 00:50:03;;;;;;;7.18;2.20;;;;;;;8.98;100.00;100300.91;5101721;27;20079;-79
2023/03/19 00:52:28;;;;;;;7.88;2.10;;;;;;;8.89;100.00;100297.94;5101498;27;20019;-79
2023/03/19 00:54:54;;;;;;;7.97;2.28;;;;;;;8.85;100.00;100313.47;5068212;27;20446;-79
2023/03/19 00:57:20;;;;;;;5.82;2.10;;;;;;;8.81;100.00;100317.94;5094436;28;20032;-80
2023/03/19 00:59:45;;;;;;;8.20;2.00;;;;;;;8.77;100.00;100325.13;5080240;27;20565;-79
2023/03/19 01:02:11;;;;;;;5.13;2.17;;;;;;;8.71;100.00;100322.41;5118444;27;20051;-79
2023/03/19 01:04:36;;;;;;;6.43;2.33;;;;;;;8.67;100.00;100326.88;5101550;27;20035;-79
2023/03/19 01:07:02;;;;;;;5.30;2.22;;;;;;;8.60;100.00;100322.75;5100743;27;20055;-80
2023/03/19 01:09:27;;;;;;;10.75;2.38;;;;;;;8.62;100.00;100326.06;5067453;27;20096;-79
2023/03/19 01:11:53;;;;;;;12.18;2.90;;;;;;;8.54;100.00;100338.56;5090006;27;20554;-80
2023/03/19 01:14:19;;;;;;;8.48;2.50;;;;;;;8.46;100.00;100341.91;5100723;27;20088;-80
2023/03/19 01:16:44;;;;;;;8.52;2.58;;;;;;;8.41;100.00;100341.94;5076052;27;20109;-80
2023/03/19 01:19:11;;;;;;;6.53;2.40;;;;;;;8.39;100.00;100344.19;5072358;28;20024;-80
2023/03/19 01:21:36;;;;;;;6.82;2.42;;;;;;;8.34;100.00;100346.94;5107734;27;20026;-80
2023/03/19 01:24:02;;;;;;;10.30;2.83;;;;;;;8.29;100.00;100345.00;5102996;27;20027;-79
2023/03/19 01:26:27;;;;;;;6.15;2.47;;;;;;;8.27;100.00;100350.84;5098307;28;20027;-80
2023/03/19 01:28:53;;;;;;;6.40;2.40;;;;;;;8.23;100.00;100344.19;5064373;27;20072;-80
2023/03/19 01:31:18;;;;;;;5.93;2.30;;;;;;;8.24;100.00;100348.59;5081114;28;20108;-79
2023/03/19 01:33:44;;;;;;;6.82;2.22;;;;;;;8.22;100.00;100355.56;5094130;27;20027;-80
2023/03/19 01:36:10;;;;;;;8.00;2.00;;;;;;;8.22;100.00;100361.09;5097317;28;20415;-80
2023/03/19 01:38:35;;;;;;;5.88;2.17;;;;;;;8.22;100.00;100361.09;5085240;28;20035;-80
2023/03/19 01:41:01;;;;;;;7.28;2.53;;;;;;;8.23;100.00;100362.75;5112384;27;20034;-80
2023/03/19 01:43:27;;;;;;;9.00;2.03;;;;;;;8.22;100.00;100363.88;5081373;27;20372;-80
2023/03/19 01:46:06;;;;;;;4.35;1.90;;;;;;;8.24;100.00;100373.50;5101514;27;20792;-79
2023/03/19 01:48:43;;;;;;;6.13;1.98;;;;;;;8.24;100.00;100376.28;5130589;27;20762;-80
2023/03/19 01:51:10;;;;;;;7.40;2.80;;;;;;;8.25;100.00;100389.03;5084735;27;20039;-80
2023/03/19 01:53:36;;;;;;;7.18;2.03;;;;;;;8.25;100.00;100386.25;5104906;27;20019;-80
2023/03/19 01:56:03;;;;;;;6.63;2.00;;;;;;;8.26;100.00;100382.38;5135883;27;20368;-79
2023/03/19 01:58:29;;;;;;;8.80;2.20;;;;;;;8.26;100.00;100379.59;5080779;28;20445;-80
2023/03/19 02:00:55;;;;;;;6.53;2.75;;;;;;;8.29;100.00;100383.75;5059531;27;20018;-80
2023/03/19 02:03:21;;;;;;;9.98;2.45;;;;;;;8.26;100.00;100387.91;5083645;27;20040;-80
2023/03/19 02:05:47;;;;;;;7.55;2.65;;;;;;;8.26;100.00;100378.78;5105228;28;20020;-80
2023/03/19 02:08:13;;;;;;;7.70;2.63;;;;;;;8.26;100.00;100374.06;5083774;27;20056;-80
2023/03/19 02:10:40;;;;;;;5.57;2.70;;;;;;;8.25;100.00;100377.13;5107130;27;20035;-79
2023/03/19 02:13:05;;;;;;;6.18;2.67;;;;;;;8.27;100.00;100375.75;5090315;27;20049;-80
2023/03/19 02:15:31;;;;;;;5.47;2.92;;;;;;;8.25;100.00;100374.38;5099069;28;20593;-80
2023/03/19 02:17:57;;;;;;;9.63;2.85;;;;;;;8.23;100.00;100385.69;5102500;28;20442;-80
2023/03/19 02:20:37;;;;;;;5.68;2.63;;;;;;;8.23;100.00;100382.94;5085764;27;20035;-80
2023/03/19 02:23:37;;;;;;;10.10;2.90;;;;;;;8.22;100.00;100388.75;5098329;28;20411;-80
2023/03/19 02:26:10;;;;;;;6.47;2.70;;;;;;;8.22;100.00;100395.13;5122918;27;20605;-79
2023/03/19 02:28:37;;;;;;;7.45;2.88;;;;;;;8.22;100.00;100397.06;5070142;27;20024;-80
2023/03/19 02:31:03;;;;;;;5.25;2.35;;;;;;;8.22;100.00;100392.34;5062187;28;20500;-80
2023/03/19 02:33:29;;;;;;;7.40;2.58;;;;;;;8.22;100.00;100389.59;5063902;28;20069;-79
2023/03/19 02:35:54;;;;;;;6.93;2.88;;;;;;;8.21;100.00;100390.69;5065491;27;20431;-80
2023/03/19 02:38:23;;;;;;;9.73;2.97;;;;;;;8.22;100.00;100381.28;5075574;28;20023;-80
2023/03/19 02:40:57;;;;;;;7.07;2.75;;;;;;;8.22;100.00;100384.06;5081490;27;20037;-80
2023/03/19 02:43:23;;;;;;;6.38;2.58;;;;;;;8.24;100.00;100392.06;5096380;28;20056;-80
2023/03/19 02:45:49;;;;;;;6.72;2.60;;;;;;;8.24;100.00;100392.06;5105082;27;20722;-79
2023/03/19 02:48:14;;;;;;;6.22;2.80;;;;;;;8.25;100.00;100393.72;5096229;27;20052;-80
2023/03/19 02:50:40;;;;;;;7.55;2.92;;;;;;;8.26;100.00;100393.44;5130188;27;20471;-80
2023/03/19 02:53:05;;;;;;;5.65;2.63;;;;;;;8.27;100.00;100392.34;5084533;28;20441;-80
2023/03/19 02:55:31;;;;;;;8.82;3.22;;;;;;;8.29;100.00;100386.50;5103340;27;20027;-80
2023/03/19 02:57:56;;;;;;;6.60;2.70;;;;;;;8.33;100.00;100384.00;5092166;27;20020;-80
2023/03/19 03:00:22;;;;;;;6.82;3.17;;;;;;;8.35;100.00;100393.69;5087881;27;20034;-80
2023/03/19 03:02:47;;;;;;;5.50;2.83;;;;;;;8.36;100.00;100388.97;5116848;27;20047;-80
2023/03/19 03:05:13;;;;;;;7.40;3.35;;;;;;;8.34;100.00;100383.72;5100318;27;20543;-79
2023/03/19 03:07:39;;;;;;;6.25;3.05;;;;;;;8.35;100.00;100385.38;5083085;27;20058;-80
2023/03/19 03:10:06;;;;;;;6.40;3.10;;;;;;;8.37;100.00;100387.88;5076132;27;20020;-80
2023/03/19 03:12:31;;;;;;;8.50;3.00;;;;;;;8.37;100.00;100397.00;5095769;27;20030;-79
2023/03/19 03:14:57;;;;;;;5.97;3.42;;;;;;;8.38;100.00;100395.06;5068544;28;20012;-80
2023/03/19 03:17:23;;;;;;;6.05;3.10;;;;;;;8.42;100.00;100398.97;5084052;28;20024;-80
2023/03/19 03:19:48;;;;;;;8.65;4.05;;;;;;;8.41;100.00;100398.13;5085509;27;20031;-80
2023/03/19 03:22:14;;;;;;;7.20;4.50;;;;;;;8.41;100.00;100389.84;5107225;27;20035;-79
2023/03/19 03:24:40;;;;;;;7.63;4.22;;;;;;;8.41;100.00;100392.59;5104003;27;20065;-79
2023/03/19 03:27:05;;;;;;;9.27;4.07;;;;;;;8.43;100.00;100392.31;5090566;27;20024;-80
2023/03/19 03:29:31;;;;;;;8.77;4.10;;;;;;;8.44;100.00;100396.72;5089481;27;20027;-80
2023/03/19 03:31:56;;;;;;;10.57;3.80;;;;;;;8.45;100.00;100388.16;5083436;28;20020;-80
2023/03/19 03:34:22;;;;;;;7.47;3.90;;;;;;;8.45;100.00;100390.09;5111684;27;20038;-80
2023/03/19 03:36:47;;;;;;;10.75;3.97;;;;;;;8.46;100.00;100386.19;5091126;28;20483;-80
2023/03/19 03:39:13;;;;;;;7.18;3.40;;;;;;;8.45;100.00;100384.56;5088887;27;20038;-80
2023/03/19 03:41:38;;;;;;;5.97;3.67;;;;;;;8.47;100.00;100390.66;5116664;27;20073;-80
2023/03/19 03:44:04;;;;;;;11.93;3.67;;;;;;;8.52;100.00;100387.00;5077632;27;20031;-81
2023/03/19 03:46:29;;;;;;;7.63;4.10;;;;;;;8.48;100.00;100393.13;5090788;28;20574;-80
2023/03/19 03:48:55;;;;;;;6.38;3.60;;;;;;;8.47;100.00;100396.19;5112682;27;20034;-81
2023/03/19 03:51:21;;;;;;;11.43;4.10;;;;;;;8.52;100.00;100398.91;5115287;27;20551;-81
2023/03/19 03:53:46;;;;;;;7.80;3.42;;;;;;;8.50;100.00;100399.19;5070937;27;20023;-81
2023/03/19 03:56:12;;;;;;;8.45;3.38;;;;;;;8.53;100.00;100399.75;5109531;27;20033;-80
2023/03/19 03:58:38;;;;;;;7.30;3.95;;;;;;;8.54;100.00;100402.22;5086741;27;20064;-80
2023/03/19 04:01:03;;;;;;;7.35;3.53;;;;;;;8.53;100.00;100399.75;5119117;27;20019;-80
2023/03/19 04:03:29;;;;;;;8.30;4.00;;;;;;;8.54;100.00;100402.22;5060147;27;20027;-80
2023/03/19 04:05:54;;;;;;;6.88;3.70;;;;;;;8.53;100.00;100411.66;5111132;27;20016;-80
2023/03/19 04:08:20;;;;;;;7.10;3.65;;;;;;;8.56;100.00;100416.63;5085929;28;20032;-81
2023/03/19 04:10:45;;;;;;;9.13;3.60;;;;;;;8.55;100.00;100414.94;5064750;28;20031;-81
2023/03/19 04:13:11;;;;;;;8.38;3.75;;;;;;;8.54;100.00;100418.81;5093073;27;20023;-81
2023/03/19 04:15:37;;;;;;;12.93;3.53;;;;;;;8.55;100.00;100425.19;5060156;28;20062;-81
2023/03/19 04:18:02;;;;;;;9.20;3.40;;;;;;;8.57;100.00;100428.50;5075581;27;20047;-80
2023/03/19 04:20:28;;;;;;;7.25;3.00;;;;;;;8.57;100.00;100429.34;5086481;27;20030;-80
2023/03/19 04:22:54;;;;;;;6.30;3.17;;;;;;;8.54;100.00;100421.59;5086004;27;20368;-80
2023/03/19 04:25:20;;;;;;;8.55;3.45;;;;;;;8.56;100.00;100438.75;5069293;27;20050;-81
2023/03/19 04:27:45;;;;;;;8.90;3.45;;;;;;;8.56;100.00;100424.09;5096647;28;20032;-80
2023/03/19 04:30:12;;;;;;;8.18;3.53;;;;;;;8.54;100.00;100443.75;5069492;27;20172;-81
2023/03/19 04:32:38;;;;;;;10.68;3.38;;;;;;;8.57;100.00;100445.94;5086146;27;20059;-80
2023/03/19 04:35:03;;;;;;;10.43;3.10;;;;;;;8.54;100.00;100452.03;5069347;27;20023;-80
2023/03/19 04:37:29;;;;;;;8.05;3.20;;;;;;;8.55;100.00;100456.47;5102848;27;20102;-80
2023/03/19 04:39:55;;;;;;;7.78;3.50;;;;;;;8.57;100.00;100456.19;5103002;27;20400;-80
2023/03/19 04:42:20;;;;;;;6.43;2.92;;;;;;;8.56;100.00;100458.13;5080274;28;20069;-80
2023/03/19 04:44:46;;;;;;;6.93;3.42;;;;;;;8.55;100.00;100461.16;5073893;28;20036;-80
2023/03/19 04:47:11;;;;;;;10.50;3.53;;;;;;;8.55;100.00;100470.31;5117376;27;20057;-80
2023/03/19 04:49:37;;;;;;;7.15;3.45;;;;;;;8.58;100.00;100466.16;5090998;28;20057;-81
2023/03/19 04:52:03;;;;;;;5.15;3.10;;;;;;;8.57;100.00;100470.84;5081994;27;20030;-80
2023/03/19 04:54:28;;;;;;;8.60;3.13;;;;;;;8.57;100.00;100470.84;5102610;27;20023;-80
2023/03/19 04:56:54;;;;;;;7.35;2.88;;;;;;;8.55;100.00;100481.38;5077431;28;20020;-80
2023/03/19 04:59:19;;;;;;;7.65;3.92;;;;;;;8.53;100.00;100468.94;5089598;28;20034;-80
2023/03/19 05:01:45;;;;;;;7.57;3.70;;;;;;;8.56;100.00;100477.50;5063592;28;20031;-81
2023/03/19 05:04:11;;;;;;;6.38;3.28;;;;;;;8.57;100.00;100484.69;5065463;28;20035;-80
2023/03/19 05:06:37;;;;;;;10.27;3.40;;;;;;;8.53;100.00;100483.63;5066019;28;20023;-80
2023/03/19 05:09:03;;;;;;;7.10;3.47;;;;;;;8.56;100.00;100480.28;5082160;28;20054;-81
2023/03/19 05:11:29;;;;;;;9.38;3.53;;;;;;;8.55;100.00;100480.53;5096986;28;20032;-81
2023/03/19 05:13:54;;;;;;;7.35;3.15;;;;;;;8.54;100.00;100490.78;5102471;27;20575;-80
2023/03/19 05:16:20;;;;;;;4.47;2.85;;;;;;;8.53;100.00;100497.47;5090377;27;20404;-80
2023/03/19 05:18:45;;;;;;;10.65;3.55;;;;;;;8.54;100.00;100495.50;5089577;28;20415;-80
2023/03/19 05:21:11;;;;;;;7.68;3.42;;;;;;;8.53;100.00;100500.22;5081514;28;20019;-80
2023/03/19 05:23:37;;;;;;;8.00;3.72;;;;;;;8.52;100.00;100506.03;5068400;27;20019;-80
2023/03/19 05:26:03;;;;;;;6.45;3.20;;;;;;;8.54;100.00;100506.59;5084988;27;20027;-80
2023/03/19 05:28:28;;;;;;;6.43;3.13;;;;;;;8.55;100.00;100509.06;5101386;27;20033;-81
2023/03/19 05:30:54;;;;;;;9.98;3.72;;;;;;;8.52;100.00;100508.78;5084461;27;20034;-80
2023/03/19 05:33:21;;;;;;;8.52;3.47;;;;;;;8.53;100.00;100511.28;5101957;27;20023;-80
2023/03/19 05:35:47;;;;;;;5.22;3.10;;;;;;;8.53;100.00;100516.00;5067978;27;20046;-80
2023/03/19 05:38:12;;;;;;;7.38;3.25;;;;;;;8.51;100.00;100513.50;5082264;27;20026;-80
2023/03/19 05:40:40;;;;;;;10.75;4.00;;;;;;;8.47;100.00;100518.78;5081302;28;20074;-80
2023/03/19 05:43:06;;;;;;;7.85;3.30;;;;;;;8.47;100.00;100526.25;5089330;28;20032;-80
2023/03/19 05:45:32;;;;;;;6.65;2.70;;;;;;;8.45;100.00;100525.69;5101573;27;20039;-80
2023/03/19 05:47:57;;;;;;;8.32;3.40;;;;;;;8.41;100.00;100535.66;5080237;28;20550;-80
2023/03/19 05:50:23;;;;;;;8.32;2.40;;;;;;;8.44;100.00;100535.09;5065803;27;20026;-80
2023/03/19 05:52:48;;;;;;;5.35;2.30;;;;;;;8.43;100.00;100541.75;5063957;28;20111;-80
2023/03/19 05:55:14;;;;;;;6.38;2.33;;;;;;;8.43;100.00;100545.34;5082540;27;20029;-80
2023/03/19 05:57:40;;;;;;;6.15;2.22;;;;;;;8.46;100.00;100543.97;5081177;28;20061;-80
2023/03/19 06:00:06;;;;;;;8.05;3.17;;;;;;;8.41;100.00;100546.72;5099706;27;20027;-80
2023/03/19 06:02:32;;;;;;;8.45;2.72;;;;;;;8.41;100.00;100552.25;5084735;27;20046;-80
2023/03/19 06:04:57;;;;;;;8.18;2.75;;;;;;;8.39;100.00;100554.50;5084499;27;20038;-80
2023/03/19 06:07:23;;;;;;;9.45;2.70;;;;;;;8.37;100.00;100562.22;5084178;27;20519;-80
2023/03/19 06:09:48;;;;;;;7.15;2.38;;;;;;;8.32;100.00;100564.97;5080253;28;20035;-80
2023/03/19 06:12:15;;;;;;;9.98;3.08;;;;;;;8.33;100.00;100570.25;5118166;27;20027;-80
2023/03/19 06:14:40;;;;;;;7.40;2.30;;;;;;;8.36;100.00;100571.59;5085190;27;20654;-80
2023/03/19 06:17:06;;;;;;;4.85;1.98;;;;;;;8.38;100.00;100572.16;5089592;28;20027;-80
2023/03/19 06:19:31;;;;;;;5.03;2.33;;;;;;;8.38;100.00;100572.16;5065756;28;20492;-81
2023/03/19 06:21:57;;;;;;;6.53;2.28;;;;;;;8.35;100.00;100579.06;5084290;27;20084;-81
2023/03/19 06:24:22;;;;;;;4.97;1.88;;;;;;;8.37;100.00;100579.63;5084196;27;20027;-80
2023/03/19 06:26:48;;;;;;;7.60;2.17;;;;;;;8.38;100.00;100586.81;5083891;27;20019;-81
2023/03/19 06:29:13;;;;;;;6.15;2.00;;;;;;;8.37;100.00;100589.88;5080349;28;20480;-81
2023/03/19 06:31:40;;;;;;;5.88;1.80;;;;;;;8.40;100.00;100594.91;5083506;27;20032;-81
2023/03/19 06:34:06;;;;;;;5.07;1.98;;;;;;;8.39;100.00;100604.31;5081135;28;20425;-81
2023/03/19 06:36:31;;;;;;;6.50;1.55;;;;;;;8.40;100.00;100609.56;5084192;28;20022;-81
2023/03/19 06:38:57;;;;;;;3.53;1.38;;;;;;;8.39;100.00;100620.91;5100607;28;20050;-81
2023/03/19 06:41:24;;;;;;;2.72;1.42;;;;;;;8.39;100.00;100618.16;5100736;28;20499;-81
2023/03/19 06:43:49;;;;;;;5.15;1.42;;;;;;;8.37;100.00;100620.31;5067055;28;20031;-81
2023/03/19 06:46:15;;;;;;;5.97;1.77;;;;;;;8.38;100.00;100619.22;5080359;28;20046;-81
2023/03/19 06:48:40;;;;;;;2.95;1.40;;;;;;;8.40;100.00;100619.81;5063507;28;20048;-81
2023/03/19 06:51:06;;;;;;;6.10;1.80;;;;;;;8.37;100.00;100625.84;5083513;28;20039;-81
2023/03/19 06:53:31;;;;;;;3.60;1.35;;;;;;;8.37;100.00;100621.16;5066832;28;20019;-81
2023/03/19 06:55:57;;;;;;;9.60;1.73;;;;;;;8.33;100.00;100628.34;5080430;28;20031;-81
2023/03/19 06:58:22;;;;;;;8.88;1.92;;;;;;;8.32;100.00;100642.47;5083853;28;20702;-81
2023/03/19 07:00:48;;;;;;;6.18;1.50;;;;;;;8.30;100.00;100642.72;5074852;28;20023;-81
2023/03/19 07:03:13;;;;;;;4.90;1.80;;;;;;;8.31;100.00;100647.16;5063186;28;20032;-80
2023/03/19 07:05:39;;;;;;;5.10;1.75;;;;;;;8.30;100.00;100645.47;5091036;28;20023;-80
2023/03/19 07:08:10;;;;;;;5.40;1.50;;;;;;;8.31;100.00;100651.88;5072789;28;20019;-81
2023/03/19 07:10:38;;;;;;;8.30;2.10;;;;;;;8.31;100.00;100652.69;5085142;28;20059;-81
2023/03/19 07:13:04;;;;;;;5.55;1.90;;;;;;;8.34;100.00;100659.63;5116402;28;20070;-81
2023/03/19 07:15:30;;;;;;;6.32;1.90;;;;;;;8.34;100.00;100660.44;5083069;28;20031;-81
2023/03/19 07:17:56;;;;;;;5.40;2.10;;;;;;;8.35;100.00;100658.50;5116500;28;20039;-81
2023/03/19 07:20:21;;;;;;;6.35;2.10;;;;;;;8.37;100.00;100657.13;5083354;28;20058;-81
2023/03/19 07:22:49;;;;;;;9.82;1.90;;;;;;;8.37;100.00;100665.44;5079129;28;20035;-81
2023/03/19 07:25:15;;;;;;;7.45;2.35;;;;;;;8.39;100.00;100662.44;5059071;28;20027;-81
2023/03/19 07:27:40;;;;;;;6.90;2.63;;;;;;;8.40;100.00;100662.13;5099687;28;20414;-72
2023/03/19 07:30:07;;;;;;;8.73;2.40;;;;;;;8.41;100.00;100663.81;5117380;27;20038;-78
2023/03/19 07:32:32;;;;;;;7.97;2.65;;;;;;;8.41;100.00;100663.81;5080394;27;20027;-79
2023/03/19 07:34:58;;;;;;;7.57;2.50;;;;;;;8.44;100.00;100665.19;5083926;28;20026;-79
2023/03/19 07:37:23;;;;;;;9.13;2.25;;;;;;;8.43;100.00;100661.59;5084638;27;20119;-79
2023/03/19 07:39:49;;;;;;;7.80;2.35;;;;;;;8.46;100.00;100661.03;5070830;27;20391;-79
2023/03/19 07:42:15;;;;;;;9.18;2.50;;;;;;;8.48;100.00;100666.31;5091630;28;20028;-79
2023/03/19 07:44:40;;;;;;;10.43;2.72;;;;;;;8.49;100.00;100662.41;5103701;27;20032;-78
2023/03/19 07:47:06;;;;;;;11.18;3.47;;;;;;;8.50;100.00;100675.16;5059729;28;20060;-81
2023/03/19 07:49:31;;;;;;;9.40;3.85;;;;;;;8.52;100.00;100688.72;5049557;28;20031;-81
2023/03/19 07:51:57;;;;;;;12.48;4.60;;;;;;;8.50;100.00;100683.47;5082609;28;20030;-79
2023/03/19 07:54:22;;;;;;;15.45;4.78;;;;;;;8.48;100.00;100697.56;5046087;28;20533;-79
2023/03/19 07:56:48;;;;;;;10.82;3.97;;;;;;;8.52;100.00;100684.00;5049568;28;20042;-79
2023/03/19 07:59:14;;;;;;;12.57;3.88;;;;;;;8.59;100.00;100700.34;5063413;28;20035;-79
2023/03/19 08:01:40;;;;;;;12.93;3.15;;;;;;;8.62;100.00;100703.41;5048806;28;20040;-79
2023/03/19 08:04:05;;;;;;;10.60;3.28;;;;;;;8.66;100.00;100698.97;5066628;28;20038;-79
2023/03/19 08:06:31;;;;;;;14.73;3.47;;;;;;;8.76;100.00;100702.84;5049695;28;20503;-78
2023/03/19 08:08:57;;;;;;;10.48;3.00;;;;;;;8.80;100.00;100695.63;5046425;28;20063;-79
2023/03/19 08:11:22;;;;;;;14.88;3.80;;;;;;;8.87;100.00;100699.78;5080317;28;20058;-79
2023/03/19 08:13:47;;;;;;;13.10;3.10;;;;;;;8.94;100.00;100705.91;5056716;28;20016;-79
2023/03/19 08:16:13;;;;;;;14.00;3.42;;;;;;;9.01;100.00;100711.13;5051873;28;20674;-79
2023/03/19 08:18:39;;;;;;;15.82;4.15;;;;;;;9.13;100.00;100708.91;5049563;28;20024;-79
2023/03/19 08:21:04;;;;;;;12.82;3.13;;;;;;;9.16;100.00;100702.81;5083039;28;20032;-79
2023/03/19 08:23:30;;;;;;;11.88;3.53;;;;;;;9.27;100.00;100702.78;5082995;28;20084;-79
2023/03/19 08:25:56;;;;;;;18.30;3.70;;;;;;;9.36;100.00;100715.78;5066345;28;20024;-79
2023/03/19 08:28:22;;;;;;;12.48;3.08;;;;;;;9.49;100.00;100714.34;5066038;28;20046;-78
2023/03/19 08:30:47;;;;;;;13.40;3.38;;;;;;;9.59;100.00;100719.06;5062442;28;20107;-79
2023/03/19 08:33:13;;;;;;;14.25;3.58;;;;;;;9.73;100.00;100725.66;5078627;28;20502;-79
2023/03/19 08:35:39;;;;;;;18.23;3.40;;;;;;;9.83;100.00;100722.00;5049231;28;20028;-79
2023/03/19 08:38:04;;;;;;;14.90;3.47;;;;;;;9.95;100.00;100725.28;5055451;28;20026;-79
2023/03/19 08:40:30;;;;;;;10.60;3.28;;;;;;;10.09;100.00;100727.44;5062367;28;20036;-79
2023/03/19 08:42:55;;;;;;;10.27;2.92;;;;;;;10.18;100.00;100729.31;5086745;28;20036;-79
2023/03/19 08:45:21;;;;;;;11.57;2.63;;;;;;;10.24;100.00;100730.94;5061800;28;20028;-79
2023/03/19 08:47:47;;;;;;;9.50;2.50;;;;;;;10.33;100.00;100730.38;5084408;28;20605;-79
2023/03/19 08:50:12;;;;;;;9.65;2.47;;;;;;;10.41;100.00;100744.47;5078249;28;20061;-79
2023/03/19 08:52:38;;;;;;;11.85;1.88;;;;;;;10.42;100.00;100740.59;5091726;28;20031;-79
2023/03/19 08:55:04;;;;;;;11.80;2.58;;;;;;;10.52;100.00;100745.25;5078189;28;20656;-79
2023/03/19 08:57:30;;;;;;;8.68;1.90;;;;;;;10.57;100.00;100752.72;5077032;28;20426;-79
2023/03/19 08:59:55;;;;;;;8.75;1.77;;;;;;;10.63;100.00;100754.34;5095297;28;20569;-79
2023/03/19 09:02:21;;;;;;;9.65;2.40;;;;;;;10.65;100.00;100752.13;5082095;28;20039;-79
2023/03/19 09:04:46;;;;;;;12.57;1.83;;;;;;;10.68;100.00;100754.31;5039064;28;20404;-79
2023/03/19 09:07:14;;;;;;;9.15;1.70;;;;;;;10.68;100.00;100765.41;5073071;28;20028;-79
2023/03/19 09:09:39;;;;;;;7.93;1.50;;;;;;;10.73;100.00;100768.16;5061753;28;20031;-79
2023/03/19 09:12:06;;;;;;;9.65;1.60;;;;;;;10.77;100.00;100760.91;5071889;28;20032;-79
2023/03/19 09:14:33;;;;;;;7.97;1.88;;;;;;;10.80;100.00;100768.66;5045189;28;20062;-79
2023/03/19 09:16:58;;;;;;;5.78;1.55;;;;;;;10.79;100.00;100772.56;5071988;28;20023;-79
2023/03/19 09:19:24;;;;;;;7.35;1.70;;;;;;;10.85;100.00;100765.03;5065158;28;20045;-79
2023/03/19 09:21:50;;;;;;;10.07;1.60;;;;;;;10.83;100.00;100773.63;5074348;28;20085;-79
2023/03/19 09:24:16;;;;;;;14.25;1.80;;;;;;;10.91;100.00;100770.22;5048225;28;20024;-79
2023/03/19 09:26:41;;;;;;;11.52;1.75;;;;;;;10.94;100.00;100777.16;5078533;28;20032;-79
2023/03/19 09:29:06;;;;;;;10.13;1.98;;;;;;;10.91;100.00;100781.34;5095079;28;20038;-79
2023/03/19 09:31:32;;;;;;;8.55;2.20;;;;;;;10.93;100.00;100783.84;5074116;28;20032;-79
2023/03/19 09:33:59;;;;;;;9.05;2.45;;;;;;;10.94;100.00;100791.88;5077037;28;20054;-79
2023/03/19 09:36:25;;;;;;;12.38;3.03;;;;;;;10.95;100.00;100792.75;5044788;28;20109;-79
2023/03/19 09:38:51;;;;;;;10.77;2.50;;;;;;;10.93;100.00;100790.22;5060022;28;20101;-78
2023/03/19 09:41:49;;;;;;;8.02;2.15;;;;;;;10.91;100.00;100791.63;5051656;27;20470;-79
2023/03/19 09:44:24;;;;;;;9.50;2.05;;;;;;;10.93;100.00;100793.00;5071248;28;20058;-79
2023/03/19 09:47:03;;;;;;;6.10;2.00;;;;;;;10.92;100.00;100798.84;5097227;27;20053;-79
2023/03/19 09:49:36;;;;;;;7.63;1.80;;;;;;;10.88;100.00;100798.59;5101465;27;20041;-79
2023/03/19 09:52:19;;;;;;;8.98;2.35;;;;;;;10.88;100.00;100798.59;5065563;28;20035;-79
2023/03/19 09:54:47;;;;;;;8.98;1.85;;;;;;;10.84;100.00;100789.19;5075062;28;20118;-79
2023/03/19 09:57:13;;;;;;;6.88;2.00;;;;;;;10.85;100.00;100796.41;5094032;28;20103;-78
2023/03/19 09:59:38;;;;;;;10.93;2.08;;;;;;;10.86;100.00;100792.50;5077291;27;20035;-78
2023/03/19 10:02:54;;;;;;;8.60;2.25;;;;;;;10.91;100.00;100789.69;5081190;28;20495;-79
2023/03/19 10:05:31;;;;;;;5.97;1.75;;;;;;;10.98;100.00;100785.75;5051372;27;20046;-79
2023/03/19 10:08:18;;;;;;;9.05;2.33;;;;;;;11.00;100.00;100791.84;5076620;27;20030;-79
2023/03/19 10:10:56;;;;;;;8.20;3.00;;;;;;;11.05;100.00;100791.81;5101037;28;20027;-79
2023/03/19 10:13:36;;;;;;;6.97;2.50;;;;;;;11.11;100.00;100791.47;5124182;27;20054;-79
2023/03/19 10:16:02;;;;;;;9.10;3.00;;;;;;;11.20;100.00;100794.47;5071948;28;20588;-78
2023/03/19 10:18:33;;;;;;;5.75;2.10;;;;;;;11.24;100.00;100789.16;5071233;28;20089;-78
2023/03/19 10:21:12;;;;;;;7.28;1.60;;;;;;;11.32;100.00;100794.91;5078314;28;20098;-79
2023/03/19 10:23:44;;;;;;;4.60;1.50;;;;;;;11.38;100.00;100804.03;5080615;28;20062;-79
2023/03/19 10:26:15;;;;;;;8.35;2.13;;;;;;;11.42;100.00;100810.66;5081033;28;20146;-79
2023/03/19 10:28:43;;;;;;;4.97;1.77;;;;;;;11.37;100.00;100814.34;5065052;27;20061;-78
2023/03/19 10:31:13;;;;;;;5.65;1.60;;;;;;;11.41;100.00;100817.34;5061801;28;20030;-78
2023/03/19 10:33:44;;;;;;;9.00;2.28;;;;;;;11.50;100.00;100815.59;5075020;28;20030;-78
2023/03/19 10:36:11;;;;;;;6.13;1.67;;;;;;;11.51;100.00;100824.78;5068762;28;20042;-78
2023/03/19 10:38:41;;;;;;;11.27;1.98;;;;;;;11.59;100.00;100830.53;5080126;28;20032;-78
2023/03/19 10:41:37;;;;;;;5.55;1.52;;;;;;;11.63;100.00;100831.59;5071472;28;20032;-79
2023/03/19 10:44:22;;;;;;;6.93;2.20;;;;;;;11.76;100.00;100824.53;5094531;28;20040;-78
2023/03/19 10:46:48;;;;;;;8.77;1.70;;;;;;;11.90;100.00;100823.88;5084746;28;20073;-79
2023/03/19 10:49:13;;;;;;;9.73;1.88;;;;;;;12.02;100.00;100827.06;5080206;28;20028;-79
2023/03/19 10:51:42;;;;;;;9.30;2.65;;;;;;;12.16;100.00;100821.59;5098606;28;20118;-79
2023/03/19 10:54:37;;;;;;;7.47;1.92;;;;;;;12.34;100.00;100828.31;5066192;28;20019;-79
2023/03/19 10:57:02;;;;;;;6.93;1.48;;;;;;;12.47;100.00;100827.59;5072603;28;20061;-79
2023/03/19 10:59:32;;;;;;;13.57;2.53;;;;;;;12.58;100.00;100823.56;5093295;28;20023;-78
2023/03/19 11:02:01;;;;;;;6.90;1.95;;;;;;;12.72;100.00;100824.47;5096946;28;20027;-78
2023/03/19 11:04:28;;;;;;;3.95;1.55;;;;;;;12.84;100.00;100831.53;5084012;28;20061;-79
2023/03/19 11:07:14;;;;;;;7.63;1.35;;;;;;;12.90;100.00;100833.97;5087784;27;20035;-79
2023/03/19 11:09:41;;;;;;;8.45;1.40;;;;;;;12.99;100.00;100834.09;5100760;28;20087;-78
2023/03/19 11:12:17;;;;;;;6.65;1.30;;;;;;;13.04;100.00;100838.75;5104016;27;20083;-78
2023/03/19 11:14:44;;;;;;;8.32;1.20;;;;;;;13.06;100.00;100844.88;5103963;27;20072;-78
2023/03/19 11:17:35;;;;;;;6.93;1.75;;;;;;;13.08;100.00;100843.44;5093768;28;20031;-78
2023/03/19 11:20:27;;;;;;;6.22;1.38;;;;;;;13.12;100.00;100849.22;5057122;28;20027;-78
2023/03/19 11:22:53;;;;;;;9.02;1.67;;;;;;;13.18;100.00;100843.28;5099413;28;20031;-78